createdAt,value
2018-01-03T00:00:16.474Z,90.2
2018-01-03T00:01:19.171Z,90.3
2018-01-03T00:02:21.578Z,90.3
2018-01-03T00:03:23.988Z,90.4
2018-01-03T00:04:26.418Z,90.4
2018-01-03T00:05:28.808Z,90.4
2018-01-03T00:06:31.228Z,90.4
2018-01-03T00:07:33.929Z,90.4
2018-01-03T00:08:36.348Z,90.4
2018-01-03T00:09:38.758Z,90.4
2018-01-03T00:10:41.160Z,90.4
2018-01-03T00:11:43.571Z,90.4
2018-01-03T00:12:45.993Z,90.4
2018-01-03T00:13:48.391Z,90.4
2018-01-03T00:14:50.804Z,90.3
2018-01-03T00:15:53.203Z,90.4
2018-01-03T00:16:55.907Z,90.4
2018-01-03T00:17:58.322Z,90.4
2018-01-03T00:19:01.004Z,90.4
2018-01-03T00:20:03.424Z,90.5
2018-01-03T00:21:05.838Z,90.4
2018-01-03T00:22:08.528Z,90.4
2018-01-03T00:23:11.236Z,90.5
2018-01-03T00:24:13.641Z,90.4
2018-01-03T00:25:16.048Z,90.4
2018-01-03T00:26:18.473Z,90.4
2018-01-03T00:27:21.160Z,90.3
2018-01-03T00:28:23.574Z,90.3
2018-01-03T00:29:25.990Z,90.4
2018-01-03T00:30:28.401Z,90.5
2018-01-03T00:31:30.800Z,90.5
2018-01-03T00:32:33.212Z,90.5
2018-01-03T00:33:35.635Z,90.4
2018-01-03T00:34:38.321Z,90.4
2018-01-03T00:35:40.742Z,90.5
2018-01-03T00:36:43.146Z,90.5
2018-01-03T00:37:45.556Z,90.4
2018-01-03T00:38:47.971Z,90.4
2018-01-03T00:39:50.381Z,90.3
2018-01-03T00:40:52.788Z,90.3
2018-01-03T00:41:55.195Z,90.3
2018-01-03T00:42:57.605Z,90.3
2018-01-03T00:44:00.023Z,90.2
2018-01-03T00:45:02.427Z,90.2
2018-01-03T00:46:04.837Z,90.2
2018-01-03T00:47:07.249Z,90.2
2018-01-03T00:48:09.949Z,90.2
2018-01-03T00:49:12.360Z,90.2
2018-01-03T00:50:14.777Z,90.2
2018-01-03T00:51:17.187Z,90.1
2018-01-03T00:52:19.588Z,90.2
2018-01-03T00:53:21.998Z,90.1
2018-01-03T00:54:24.406Z,90.1
2018-01-03T00:55:26.816Z,90.2
2018-01-03T00:56:29.235Z,90.2
2018-01-03T00:57:31.633Z,90.2
2018-01-03T00:58:34.041Z,90.3
2018-01-03T00:59:36.453Z,90.3
2018-01-03T01:00:39.151Z,90.2
2018-01-03T01:01:41.554Z,90.3
2018-01-03T01:02:43.976Z,90.3
2018-01-03T01:03:46.382Z,90.4
2018-01-03T01:04:48.800Z,90.3
2018-01-03T01:05:51.212Z,90.3
2018-01-03T01:06:53.612Z,90.4
2018-01-03T01:07:56.017Z,90.4
2018-01-03T01:08:58.420Z,90.4
2018-01-03T01:10:00.828Z,90.4
2018-01-03T01:11:03.520Z,90.3
2018-01-03T01:12:05.932Z,90.3
2018-01-03T01:13:08.346Z,90.3
2018-01-03T01:14:11.038Z,90.3
2018-01-03T01:15:13.739Z,90.3
2018-01-03T01:16:16.432Z,90.3
2018-01-03T01:17:18.832Z,90.3
2018-01-03T01:18:21.247Z,90.3
2018-01-03T01:19:23.935Z,90.3
2018-01-03T01:20:26.341Z,90.3
2018-01-03T01:21:28.744Z,90.4
2018-01-03T01:22:31.151Z,90.3
2018-01-03T01:23:33.552Z,90.4
2018-01-03T01:24:35.971Z,90.3
2018-01-03T01:25:38.657Z,90.2
2018-01-03T01:26:41.073Z,90.2
2018-01-03T01:27:43.481Z,90.1
2018-01-03T01:28:45.883Z,90.1
2018-01-03T01:29:48.297Z,90
2018-01-03T01:30:50.718Z,89.8
2018-01-03T01:31:53.118Z,89.9
2018-01-03T01:32:55.536Z,90
2018-01-03T01:33:58.218Z,90
2018-01-03T01:35:00.631Z,90
2018-01-03T01:36:03.044Z,90
2018-01-03T01:37:05.453Z,90
2018-01-03T01:38:07.848Z,90
2018-01-03T01:39:10.269Z,89.8
2018-01-03T01:40:12.969Z,89.7
2018-01-03T01:41:15.371Z,89.7
2018-01-03T01:42:17.790Z,89.7
2018-01-03T01:43:20.196Z,89.6
2018-01-03T01:44:22.610Z,89.7
2018-01-03T01:45:25.016Z,89.8
2018-01-03T01:46:27.711Z,90
2018-01-03T01:47:30.122Z,89.8
2018-01-03T01:48:32.818Z,89.7
2018-01-03T01:49:35.219Z,89.6
2018-01-03T01:50:37.629Z,89.6
2018-01-03T01:51:40.326Z,89.6
2018-01-03T01:52:42.738Z,89.6
2018-01-03T01:53:45.151Z,89.6
2018-01-03T01:54:47.561Z,89.7
2018-01-03T01:55:49.976Z,89.5
2018-01-03T01:56:52.979Z,89.8
2018-01-03T01:57:55.390Z,89.9
2018-01-03T01:58:58.093Z,89.7
2018-01-03T02:00:00.497Z,89.9
2018-01-03T02:01:02.905Z,90
2018-01-03T02:02:05.320Z,90
2018-01-03T02:03:07.718Z,90.1
2018-01-03T02:04:10.126Z,90
2018-01-03T02:05:12.539Z,90
2018-01-03T02:06:14.937Z,90
2018-01-03T02:07:17.352Z,90.1
2018-01-03T02:08:19.755Z,90.1
2018-01-03T02:09:22.158Z,90.2
2018-01-03T02:10:24.573Z,90.1
2018-01-03T02:11:26.985Z,90.2
2018-01-03T02:12:29.392Z,90.2
2018-01-03T02:13:31.816Z,90.2
2018-01-03T02:14:34.227Z,90.2
2018-01-03T02:15:37.191Z,90.1
2018-01-03T02:16:39.603Z,90
2018-01-03T02:17:42.005Z,90
2018-01-03T02:18:44.416Z,90
2018-01-03T02:19:46.825Z,90.1
2018-01-03T02:20:49.222Z,90.1
2018-01-03T02:21:51.634Z,90.2
2018-01-03T02:22:54.056Z,90.1
2018-01-03T02:23:56.463Z,90
2018-01-03T02:24:58.875Z,90
2018-01-03T02:26:01.287Z,89.9
2018-01-03T02:27:03.978Z,90
2018-01-03T02:28:06.384Z,90
2018-01-03T02:29:08.784Z,90
2018-01-03T02:30:11.208Z,90
2018-01-03T02:31:14.175Z,90
2018-01-03T02:32:16.587Z,90.1
2018-01-03T02:33:18.986Z,90.1
2018-01-03T02:34:21.401Z,90.1
2018-01-03T02:35:23.812Z,90
2018-01-03T02:36:26.232Z,90
2018-01-03T02:37:28.622Z,90
2018-01-03T02:38:31.323Z,90
2018-01-03T02:39:33.735Z,90.1
2018-01-03T02:40:36.139Z,90.1
2018-01-03T02:41:38.547Z,90.1
2018-01-03T02:42:40.958Z,90.1
2018-01-03T02:43:43.365Z,90.1
2018-01-03T02:44:45.781Z,90.1
2018-01-03T02:45:48.189Z,90.2
2018-01-03T02:46:50.584Z,90.2
2018-01-03T02:47:53.006Z,90.2
2018-01-03T02:48:55.411Z,90.3
2018-01-03T02:49:57.823Z,90.3
2018-01-03T02:51:00.234Z,90.2
2018-01-03T02:52:02.634Z,90.3
2018-01-03T02:53:05.041Z,90.3
2018-01-03T02:54:07.460Z,90.4
2018-01-03T02:55:09.869Z,90.4
2018-01-03T02:56:12.287Z,90.4
2018-01-03T02:57:14.697Z,90.4
2018-01-03T02:58:17.104Z,90.5
2018-01-03T02:59:19.506Z,90.4
2018-01-03T03:00:21.907Z,90.4
2018-01-03T03:01:24.316Z,90.5
2018-01-03T03:02:26.730Z,90.5
2018-01-03T03:03:29.120Z,90.4
2018-01-03T03:04:31.528Z,90.5
2018-01-03T03:05:33.947Z,90.5
2018-01-03T03:06:36.360Z,90.4
2018-01-03T03:07:38.774Z,90.4
2018-01-03T03:08:41.186Z,90.5
2018-01-03T03:09:43.589Z,90.6
2018-01-03T03:10:46.017Z,90.7
2018-01-03T03:11:48.424Z,90.7
2018-01-03T03:12:50.826Z,90.8
2018-01-03T03:13:53.239Z,90.7
2018-01-03T03:14:55.645Z,90.7
2018-01-03T03:15:58.334Z,90.8
2018-01-03T03:17:00.745Z,90.9
2018-01-03T03:18:03.142Z,90.9
2018-01-03T03:19:05.546Z,91
2018-01-03T03:20:07.963Z,91.2
2018-01-03T03:21:10.365Z,91.4
2018-01-03T03:22:12.768Z,91.5
2018-01-03T03:23:15.180Z,91.6
2018-01-03T03:24:17.593Z,91.8
2018-01-03T03:25:19.996Z,92.1
2018-01-03T03:26:22.402Z,92.3
2018-01-03T03:27:24.821Z,92.3
2018-01-03T03:28:27.216Z,92.3
2018-01-03T03:29:29.626Z,92.4
2018-01-03T03:30:32.028Z,92.5
2018-01-03T03:31:34.431Z,92.6
2018-01-03T03:32:37.125Z,92.6
2018-01-03T03:33:39.530Z,92.7
2018-01-03T03:34:41.932Z,92.9
2018-01-03T03:35:44.347Z,93
2018-01-03T03:36:46.763Z,93.1
2018-01-03T03:37:49.457Z,93.1
2018-01-03T03:38:51.856Z,93.1
2018-01-03T03:39:54.267Z,93.1
2018-01-03T03:40:56.955Z,93.2
2018-01-03T03:41:59.380Z,93.3
2018-01-03T03:43:02.071Z,93.3
2018-01-03T03:44:04.478Z,93.5
2018-01-03T03:45:06.885Z,93.5
2018-01-03T03:46:09.298Z,93.4
2018-01-03T03:47:11.699Z,93.4
2018-01-03T03:48:14.104Z,93.4
2018-01-03T03:49:16.507Z,93.5
2018-01-03T03:50:18.917Z,93.6
2018-01-03T03:51:21.917Z,93.6
2018-01-03T03:52:24.614Z,93.5
2018-01-03T03:53:27.011Z,93.5
2018-01-03T03:54:29.412Z,93.5
2018-01-03T03:55:31.829Z,93.5
2018-01-03T03:56:34.520Z,93.5
2018-01-03T03:57:36.926Z,93.5
2018-01-03T03:58:39.337Z,93.6
2018-01-03T03:59:41.743Z,93.6
2018-01-03T04:00:44.144Z,93.4
2018-01-03T04:01:46.568Z,93.5
2018-01-03T04:02:48.964Z,93.5
2018-01-03T04:03:51.386Z,93.6
2018-01-03T04:04:53.794Z,93.7
2018-01-03T04:05:56.205Z,93.8
2018-01-03T04:06:58.613Z,93.9
2018-01-03T04:08:01.025Z,93.8
2018-01-03T04:09:03.423Z,93.9
2018-01-03T04:10:05.842Z,93.9
2018-01-03T04:11:08.534Z,93.9
2018-01-03T04:12:10.948Z,93.9
2018-01-03T04:13:13.640Z,93.9
2018-01-03T04:14:16.327Z,94
2018-01-03T04:15:18.724Z,94
2018-01-03T04:16:21.138Z,94
2018-01-03T04:17:23.537Z,94
2018-01-03T04:18:25.956Z,94
2018-01-03T16:48:56.184Z,94.3
2018-01-03T16:49:58.692Z,94.8
2018-01-03T16:51:01.184Z,94.8
2018-01-03T16:52:03.685Z,94.7
2018-01-03T16:53:06.185Z,94.8
2018-01-03T16:54:08.687Z,94.9
2018-01-03T16:55:11.170Z,94.8
2018-01-03T16:56:13.976Z,94.9
2018-01-03T16:57:16.456Z,94.8
2018-01-03T16:58:19.241Z,94.7
2018-01-03T16:59:21.744Z,94.8
2018-01-03T17:00:24.242Z,94.7
2018-01-03T17:01:26.748Z,94.7
2018-01-03T17:02:29.250Z,94.7
2018-01-03T17:03:31.744Z,94.7
2018-01-03T17:04:34.249Z,94.7
2018-01-03T17:05:36.749Z,94.7
2018-01-03T17:06:39.230Z,94.6
2018-01-03T17:07:41.735Z,94.6
2018-01-03T17:08:44.233Z,94.5
2018-01-03T17:09:46.723Z,94.4
2018-01-03T17:10:49.218Z,94.5
2018-01-03T17:11:52.002Z,94.5
2018-01-03T17:12:54.496Z,94.4
2018-01-03T17:13:57.001Z,94.4
2018-01-03T17:14:59.493Z,94.4
2018-01-03T17:16:01.993Z,94.5
2018-01-03T17:17:04.772Z,94.5
2018-01-03T17:18:07.265Z,94.5
2018-01-03T17:19:09.756Z,94.4
2018-01-03T17:20:12.246Z,94.4
2018-01-03T17:21:14.761Z,94.5
2018-01-03T17:22:17.258Z,94.5
2018-01-03T17:23:19.738Z,94.4
2018-01-03T17:24:22.231Z,94.6
2018-01-03T17:25:24.724Z,94.6
2018-01-03T17:26:27.233Z,94.5
2018-01-03T17:27:29.742Z,94.4
2018-01-03T17:28:32.269Z,94.4
2018-01-03T17:29:35.116Z,94.5
2018-01-03T17:30:38.408Z,94.5
2018-01-03T17:31:41.789Z,94.6
2018-01-03T17:32:45.117Z,94.6
2018-01-03T17:33:50.215Z,94.7
2018-01-03T17:34:53.604Z,94.7
2018-01-03T17:35:56.447Z,94.7
2018-01-03T17:37:00.601Z,94.6
2018-01-03T17:38:04.072Z,94.6
2018-01-03T17:39:08.095Z,94.7
2018-01-03T17:40:10.911Z,94.7
2018-01-03T17:41:13.838Z,94.7
2018-01-03T17:42:16.897Z,94.7
2018-01-03T17:43:19.696Z,94.7
2018-01-03T17:44:22.201Z,94.7
2018-01-03T17:45:24.707Z,94.6
2018-01-03T17:46:27.221Z,94.6
2018-01-03T17:47:30.015Z,94.6
2018-01-03T17:48:32.520Z,94.6
2018-01-03T17:49:35.044Z,94.6
2018-01-03T17:50:37.555Z,94.6
2018-01-03T17:51:40.076Z,94.6
2018-01-03T17:52:42.595Z,94.6
2018-01-03T17:53:45.126Z,94.5
2018-01-03T17:54:47.623Z,94.5
2018-01-03T17:55:50.138Z,94.6
2018-01-03T17:56:52.667Z,94.6
2018-01-03T17:57:55.171Z,94.5
2018-01-03T17:58:57.685Z,94.6
2018-01-03T18:00:00.601Z,94.6
2018-01-03T18:01:03.105Z,94.6
2018-01-03T18:02:05.621Z,94.6
2018-01-03T18:03:08.136Z,94.6
2018-01-03T18:04:10.641Z,94.6
2018-01-03T18:05:13.148Z,94.5
2018-01-03T18:06:15.649Z,94.5
2018-01-03T18:07:18.153Z,94.9
2018-01-03T18:08:20.664Z,94.9
2018-01-03T18:09:23.493Z,94.8
2018-01-03T18:10:26.308Z,94.8
2018-01-03T18:11:28.817Z,94.8
2018-01-03T18:12:31.318Z,94.9
2018-01-03T18:13:33.837Z,94.8
2018-01-03T18:14:36.339Z,94.9
2018-01-03T18:15:38.816Z,95
2018-01-03T18:16:41.619Z,95
2018-01-03T18:17:44.126Z,95.1
2018-01-03T18:18:46.620Z,95.1
2018-01-03T18:19:49.124Z,95.1
2018-01-03T18:20:51.635Z,95
2018-01-03T18:21:54.149Z,95.1
2018-01-03T18:22:56.654Z,95.1
2018-01-03T18:23:59.165Z,95.1
2018-01-03T18:25:01.670Z,95.1
2018-01-03T18:26:04.182Z,95
2018-01-03T18:27:06.688Z,95.1
2018-01-03T18:28:09.192Z,95.1
2018-01-03T18:29:11.693Z,95.1
2018-01-03T18:30:14.229Z,95.1
2018-01-03T18:31:16.727Z,95
2018-01-03T18:32:19.239Z,95
2018-01-03T18:33:21.754Z,95
2018-01-03T18:34:24.252Z,95.1
2018-01-03T18:35:26.756Z,95.1
2018-01-03T18:36:29.567Z,95.1
2018-01-03T18:37:32.356Z,95.1
2018-01-03T18:38:34.860Z,95
2018-01-03T18:39:37.376Z,94.9
2018-01-03T18:40:39.868Z,94.9
2018-01-03T18:41:42.378Z,94.9
2018-01-03T18:42:44.894Z,95.1
2018-01-03T18:43:47.402Z,95.1
2018-01-03T18:44:49.913Z,95
2018-01-03T18:45:52.429Z,95.1
2018-01-03T18:46:54.910Z,95
2018-01-03T18:47:57.431Z,95.1
2018-01-03T18:48:59.938Z,95.1
2018-01-03T18:50:02.746Z,95.1
2018-01-03T18:51:05.257Z,95.2
2018-01-03T18:52:07.762Z,95.2
2018-01-03T18:53:10.269Z,95.1
2018-01-03T18:54:12.755Z,95.2
2018-01-03T18:55:15.249Z,95.1
2018-01-03T18:56:17.752Z,95.1
2018-01-03T18:57:20.238Z,95.1
2018-01-03T18:58:22.745Z,95.1
2018-01-03T18:59:25.238Z,94.9
2018-01-03T19:00:27.744Z,95
2018-01-03T19:01:30.263Z,95
2018-01-03T19:02:32.768Z,95
2018-01-03T19:03:35.277Z,95
2018-01-03T19:04:37.763Z,95
2018-01-03T19:05:40.260Z,95.2
2018-01-03T19:06:42.772Z,95.3
2018-01-03T19:07:45.284Z,95.2
2018-01-03T19:08:47.788Z,95.2
2018-01-03T19:09:50.294Z,95.1
2018-01-03T19:10:52.802Z,95.1
2018-01-03T19:11:55.616Z,95.2
2018-01-03T19:12:58.129Z,95.3
2018-01-03T19:14:00.624Z,95.2
2018-01-03T19:15:03.145Z,95.3
2018-01-03T19:16:05.947Z,95.2
2018-01-03T19:17:08.442Z,95.2
2018-01-03T19:18:10.950Z,95.2
2018-01-03T19:19:13.455Z,95.2
2018-01-03T19:20:15.975Z,95.3
2018-01-03T19:21:18.486Z,95.4
2018-01-03T19:22:21.308Z,95.3
2018-01-03T19:23:23.771Z,95.4
2018-01-03T19:24:26.582Z,95.4
2018-01-03T19:25:29.086Z,95.5
2018-01-03T19:26:31.591Z,95.5
2018-01-03T19:27:34.104Z,95.4
2018-01-03T19:28:36.604Z,95.4
2018-01-03T19:29:39.143Z,95.4
2018-01-03T19:30:41.646Z,95.5
2018-01-03T19:31:44.141Z,95.5
2018-01-03T19:32:46.644Z,95.5
2018-01-03T19:33:49.144Z,95.5
2018-01-03T19:34:51.652Z,95.4
2018-01-03T19:35:54.177Z,95.4
2018-01-03T19:36:56.676Z,95.3
2018-01-03T19:37:59.195Z,95.3
2018-01-03T19:39:01.711Z,95.3
2018-01-03T19:40:04.524Z,95.4
2018-01-03T19:41:07.028Z,95.4
2018-01-03T19:42:09.557Z,95.3
2018-01-03T19:43:12.055Z,95.3
2018-01-03T19:44:14.632Z,95.3
2018-01-03T19:45:17.442Z,95.2
2018-01-03T19:46:19.945Z,95.4
2018-01-03T19:47:22.468Z,95.4
2018-01-03T19:48:24.993Z,95.3
2018-01-03T19:49:27.520Z,95.3
2018-01-03T19:50:30.028Z,95.3
2018-01-03T19:51:32.831Z,95.2
2018-01-03T19:52:35.348Z,95.3
2018-01-03T19:53:37.847Z,95.3
2018-01-03T19:54:40.376Z,95.2
2018-01-03T19:55:42.868Z,95.2
2018-01-03T19:56:45.669Z,95.2
2018-01-03T19:57:48.188Z,95.2
2018-01-03T19:58:50.986Z,95.2
2018-01-03T19:59:53.497Z,95.2
2018-01-03T20:00:56.320Z,95.3
2018-01-03T20:01:58.821Z,95.3
2018-01-03T20:03:01.357Z,95.3
2018-01-03T20:04:03.865Z,95.3
2018-01-03T20:05:06.372Z,95.2
2018-01-03T20:06:09.178Z,95.2
2018-01-03T20:07:12.018Z,95.2
2018-01-03T20:08:14.470Z,95.2
2018-01-03T20:09:16.987Z,95.3
2018-01-03T20:10:19.483Z,95.3
2018-01-03T20:11:21.993Z,95.2
2018-01-03T20:12:24.832Z,95.2
2018-01-03T20:13:27.632Z,95
2018-01-03T20:14:30.143Z,95.1
2018-01-03T20:15:32.655Z,95.1
2018-01-03T20:16:35.165Z,95.1
2018-01-03T20:17:37.656Z,95.1
2018-01-03T20:18:40.167Z,95.1
2018-01-03T20:19:42.698Z,95.2
2018-01-03T20:20:45.507Z,95.2
2018-01-03T20:21:48.001Z,95.2
2018-01-03T20:22:50.496Z,95.1
2018-01-03T20:23:52.992Z,95
2018-01-03T20:24:55.492Z,94.9
2018-01-03T20:25:57.993Z,94.9
2018-01-03T20:27:00.477Z,94.9
2018-01-03T20:28:02.967Z,94.9
2018-01-03T20:29:05.477Z,95
2018-01-03T20:30:07.959Z,95.2
2018-01-03T20:31:10.732Z,95.1
2018-01-03T20:32:13.215Z,95
2018-01-03T20:33:15.712Z,94.9
2018-01-03T20:34:18.502Z,94.9
2018-01-03T20:35:21.285Z,95
2018-01-03T20:36:23.781Z,95.1
2018-01-03T20:37:26.274Z,95
2018-01-03T20:38:28.772Z,95
2018-01-03T20:39:31.273Z,95.1
2018-01-03T20:40:33.776Z,95.1
2018-01-03T20:41:36.254Z,94.9
2018-01-03T20:42:38.754Z,95
2018-01-03T20:43:41.267Z,95.1
2018-01-03T20:44:43.758Z,95.2
2018-01-03T20:45:46.567Z,95.3
2018-01-03T20:46:49.348Z,95.1
2018-01-03T20:47:51.840Z,95
2018-01-03T20:48:54.342Z,95.2
2018-01-03T20:49:56.837Z,95.1
2018-01-03T20:50:59.318Z,95.2
2018-01-03T20:52:01.820Z,95.2
2018-01-03T20:53:04.323Z,95.2
2018-01-03T20:54:06.803Z,95.1
2018-01-03T20:55:09.590Z,95
2018-01-03T20:56:12.082Z,94.9
2018-01-03T20:57:14.574Z,94.8
2018-01-03T20:58:17.072Z,95
2018-01-03T20:59:19.572Z,95
2018-01-03T21:00:22.048Z,95.1
2018-01-03T21:01:24.554Z,95.1
2018-01-03T21:02:27.067Z,95.1
2018-01-03T21:03:29.555Z,95
2018-01-03T21:04:32.053Z,94.8
2018-01-03T21:05:34.535Z,94.8
2018-01-03T21:06:37.025Z,94.9
2018-01-03T21:07:39.537Z,95.1
2018-01-03T21:08:42.068Z,95.1
2018-01-03T21:09:44.506Z,95
2018-01-03T21:10:46.998Z,95
2018-01-03T21:11:49.488Z,95
2018-01-03T21:12:51.987Z,95
2018-01-03T21:13:54.491Z,95.1
2018-01-03T21:14:57.541Z,95
2018-01-03T21:16:00.039Z,95.1
2018-01-03T21:17:02.814Z,95.3
2018-01-03T21:18:05.322Z,95.3
2018-01-03T21:19:07.803Z,95.2
2018-01-03T21:20:10.301Z,95.3
2018-01-03T21:21:12.804Z,95.4
2018-01-03T21:22:15.302Z,95.4
2018-01-03T21:23:18.385Z,95.3
2018-01-03T21:24:20.878Z,95.3
2018-01-03T21:25:23.369Z,95.3
2018-01-03T21:26:25.900Z,95.4
2018-01-03T21:27:28.689Z,95.4
2018-01-03T21:28:31.181Z,95.5
2018-01-03T21:29:33.963Z,95.5
2018-01-03T21:30:36.460Z,95.5
2018-01-03T21:31:38.954Z,95.5
2018-01-03T21:32:41.451Z,95.4
2018-01-03T21:33:43.928Z,95.4
2018-01-03T21:34:46.425Z,95.4
2018-01-03T21:35:48.915Z,95.4
2018-01-03T21:36:51.695Z,95.3
2018-01-03T21:37:54.194Z,95.4
2018-01-03T21:38:56.685Z,95.4
2018-01-03T21:39:59.172Z,95.4
2018-01-03T21:41:01.681Z,95.4
2018-01-03T21:42:04.176Z,95.5
2018-01-03T21:43:06.714Z,95.5
2018-01-03T21:44:09.146Z,95.5
2018-01-03T21:45:11.639Z,95.6
2018-01-03T21:46:14.365Z,95.6
2018-01-03T21:47:17.154Z,95.6
2018-01-03T21:48:19.648Z,95.6
2018-01-03T21:49:22.148Z,95.6
2018-01-03T21:50:24.631Z,95.6
2018-01-03T21:51:27.134Z,95.6
2018-01-03T21:52:29.922Z,95.6
2018-01-03T21:53:32.463Z,95.6
2018-01-03T21:54:34.907Z,95.6
2018-01-03T21:55:37.406Z,95.6
2018-01-03T21:56:39.897Z,95.7
2018-01-03T21:57:42.397Z,95.6
2018-01-03T21:58:44.887Z,95.5
2018-01-03T21:59:47.375Z,95.4
2018-01-03T22:00:49.862Z,95.3
2018-01-03T22:01:52.644Z,95.3
2018-01-03T22:02:55.427Z,95.3
2018-01-03T22:03:58.208Z,95.4
2018-01-03T22:05:00.697Z,95.4
2018-01-03T22:06:03.201Z,95.4
2018-01-03T22:07:05.989Z,95.4
2018-01-03T22:08:08.475Z,95.4
2018-01-03T22:09:11.266Z,95.3
2018-01-03T22:10:13.758Z,95.3
2018-01-03T22:11:16.254Z,95.4
2018-01-03T22:12:18.743Z,95.3
2018-01-03T22:13:21.518Z,95.3
2018-01-03T22:14:24.298Z,95.2
2018-01-03T22:15:26.787Z,95.2
2018-01-03T22:16:29.291Z,95.2
2018-01-03T22:17:31.784Z,95.2
2018-01-03T22:18:34.565Z,95.1
2018-01-03T22:19:37.061Z,95.1
2018-01-03T22:20:39.838Z,95.1
2018-01-03T22:21:42.320Z,95.1
2018-01-03T22:22:44.820Z,95.1
2018-01-03T22:23:47.297Z,95.1
2018-01-03T22:24:49.790Z,95.1
2018-01-03T22:25:52.297Z,95.1
2018-01-03T22:26:54.783Z,95
2018-01-03T22:27:57.592Z,95
2018-01-03T22:29:00.096Z,95
2018-01-03T22:30:02.584Z,95.1
2018-01-03T22:31:05.096Z,95
2018-01-03T22:32:07.590Z,95
2018-01-03T22:33:10.362Z,95.1
2018-01-03T22:34:13.144Z,95.1
2018-01-03T22:35:15.945Z,95.1
2018-01-03T22:36:18.722Z,95.2
2018-01-03T22:37:21.232Z,95.1
2018-01-03T22:38:23.714Z,95.1
2018-01-03T22:39:26.209Z,95.1
2018-01-03T22:40:28.715Z,95.1
2018-01-03T22:41:31.198Z,95.2
2018-01-03T22:42:33.686Z,95.2
2018-01-03T22:43:36.176Z,95.2
2018-01-03T22:44:38.670Z,95.3
2018-01-03T22:45:41.486Z,95.4
2018-01-03T22:46:43.975Z,95.5
2018-01-03T22:47:46.462Z,95.5
2018-01-03T22:48:48.948Z,95.5
2018-01-03T22:49:51.448Z,95.5
2018-01-03T22:50:54.226Z,95.5
2018-01-03T22:51:56.719Z,95.5
2018-01-03T22:52:59.203Z,95.6
2018-01-03T22:54:01.712Z,95.6
2018-01-03T22:55:04.261Z,95.7
2018-01-03T22:56:06.764Z,95.8
2018-01-03T22:57:09.245Z,95.8
2018-01-03T22:58:11.743Z,95.8
2018-01-03T22:59:14.242Z,95.7
2018-01-03T23:00:16.724Z,95.8
2018-01-03T23:01:19.219Z,95.8
2018-01-03T23:02:21.709Z,95.9
2018-01-03T23:03:24.210Z,95.8
2018-01-03T23:04:26.714Z,95.9
2018-01-03T23:05:29.508Z,95.8
2018-01-03T23:06:31.987Z,95.8
2018-01-03T23:07:34.494Z,95.9
2018-01-03T23:08:36.984Z,95.8
2018-01-03T23:09:40.735Z,95.9
2018-01-03T23:10:43.536Z,95.6
2018-01-03T23:11:46.027Z,95.6
2018-01-03T23:12:48.524Z,95.6
2018-01-03T23:13:51.048Z,95.5
2018-01-03T23:14:53.927Z,95.5
2018-01-03T23:15:56.731Z,95.5
2018-01-03T23:16:59.236Z,95.6
2018-01-03T23:18:01.743Z,95.5
2018-01-03T23:19:04.228Z,95.4
2018-01-03T23:20:06.718Z,95.5
2018-01-03T23:21:09.229Z,95.6
2018-01-03T23:22:11.722Z,95.5
2018-01-03T23:23:14.211Z,95.4
2018-01-03T23:24:16.704Z,95.4
2018-01-03T23:25:19.191Z,95.5
2018-01-03T23:26:21.690Z,95.5
2018-01-03T23:27:24.478Z,95.5
2018-01-03T23:28:26.959Z,95.4
2018-01-03T23:29:29.458Z,95.5
2018-01-03T23:30:31.960Z,95.5
2018-01-03T23:31:34.446Z,95.5
2018-01-03T23:32:36.954Z,95.5
2018-01-03T23:33:39.445Z,95.5
2018-01-03T23:34:41.930Z,95.5
2018-01-03T23:35:44.429Z,95.6
2018-01-03T23:36:46.922Z,95.6
2018-01-03T23:37:49.415Z,95.6
2018-01-03T23:38:51.920Z,95.6
2018-01-03T23:39:54.390Z,95.7
2018-01-03T23:40:56.888Z,95.6
2018-01-03T23:41:59.384Z,95.5
2018-01-03T23:43:01.877Z,95.4
2018-01-03T23:44:04.370Z,95.5
2018-01-03T23:45:06.882Z,95.6
2018-01-03T23:46:09.371Z,95.6
2018-01-03T23:47:11.847Z,95.6
2018-01-03T23:48:14.340Z,95.5
2018-01-03T23:49:16.830Z,95.6
2018-01-03T23:50:19.328Z,95.6
2018-01-03T23:51:21.829Z,95.6
2018-01-03T23:52:24.314Z,95.5
2018-01-03T23:53:27.096Z,95.5
2018-01-03T23:54:29.600Z,95.6
2018-01-03T23:55:32.381Z,95.6
2018-01-03T23:56:34.870Z,95.6
2018-01-03T23:57:37.356Z,95.5
2018-01-03T23:58:40.144Z,95.4
2018-01-03T23:59:42.636Z,95.3
